Time;durP1;ratioP1;P1;durP2;ratioP2;P2;SDS_P1;SDS_P2;PMS_P1;PMS_P2;Temp;Humidity;BMP_temperature;BMP_pressure;BME280_temperature;BME280_humidity;BME280_pressure;Samples;Min_cycle;Max_cycle;Signal;HPM_P1;HPM_P2
2022/04/25 00:02:01;;;;;;;12.63;4.93;;;8.30;99.90;;;;;;5090000;28;20407;-69
2022/04/25 00:04:29;;;;;;;12.82;5.38;;;8.30;99.90;;;;;;5075012;28;20056;-69
2022/04/25 00:06:56;;;;;;;9.98;5.90;;;8.30;99.90;;;;;;5071456;28;20048;-69
2022/04/25 00:09:23;;;;;;;9.60;5.18;;;8.30;99.90;;;;;;5074029;28;20045;-69
2022/04/25 00:11:50;;;;;;;9.13;5.22;;;8.20;99.90;;;;;;5074504;28;20066;-69
2022/04/25 00:14:17;;;;;;;11.68;5.32;;;8.20;99.90;;;;;;5089307;28;20376;-69
2022/04/25 00:16:45;;;;;;;10.77;5.20;;;8.10;99.90;;;;;;5073333;28;20119;-69
2022/04/25 00:19:12;;;;;;;13.25;6.57;;;8.10;99.90;;;;;;5074315;28;20079;-69
2022/04/25 00:21:39;;;;;;;15.90;6.38;;;8.10;99.90;;;;;;5075027;28;20044;-69
2022/04/25 00:24:06;;;;;;;13.30;6.97;;;8.10;99.90;;;;;;5090485;28;20048;-69
2022/04/25 00:26:33;;;;;;;15.20;6.00;;;8.10;99.90;;;;;;5074138;28;20059;-69
2022/04/25 00:29:00;;;;;;;13.18;6.40;;;8.10;99.90;;;;;;5074095;28;20056;-69
2022/04/25 00:31:27;;;;;;;12.07;5.65;;;8.10;99.90;;;;;;5074363;28;20045;-69
2022/04/25 00:33:54;;;;;;;14.43;5.75;;;8.00;99.90;;;;;;5082738;28;20127;-69
2022/04/25 00:36:21;;;;;;;8.02;5.43;;;8.00;99.90;;;;;;5080880;28;20041;-69
2022/04/25 00:38:48;;;;;;;12.43;5.93;;;8.00;99.90;;;;;;5073715;28;20408;-69
2022/04/25 00:41:16;;;;;;;12.60;5.95;;;8.00;99.90;;;;;;5074752;28;20048;-69
2022/04/25 00:43:43;;;;;;;10.55;6.13;;;8.00;99.90;;;;;;5056595;28;20052;-70
2022/04/25 00:46:23;;;;;;;11.55;5.43;;;8.00;99.90;;;;;;5054729;28;20072;-69
2022/04/25 00:48:50;;;;;;;16.52;6.40;;;7.90;99.90;;;;;;5073379;28;20310;-70
2022/04/25 00:51:17;;;;;;;12.30;5.10;;;7.90;99.90;;;;;;5073255;28;20045;-70
2022/04/25 00:53:45;;;;;;;19.38;7.40;;;7.90;99.90;;;;;;5074745;28;20399;-69
2022/04/25 00:56:14;;;;;;;11.18;6.72;;;7.90;99.90;;;;;;5073157;28;20482;-70
2022/04/25 00:58:42;;;;;;;12.23;6.32;;;7.80;99.90;;;;;;5071925;28;20076;-70
2022/04/25 01:01:09;;;;;;;29.00;9.20;;;7.80;99.90;;;;;;5055700;28;20044;-70
2022/04/25 01:03:36;;;;;;;15.23;6.10;;;7.80;99.90;;;;;;5072826;28;20127;-70
2022/04/25 01:06:03;;;;;;;12.95;6.18;;;7.80;99.90;;;;;;5073522;28;20047;-70
2022/04/25 01:08:34;;;;;;;12.88;5.70;;;7.80;99.90;;;;;;5073170;28;20044;-69
2022/04/25 01:11:02;;;;;;;11.02;6.93;;;7.80;99.90;;;;;;5072746;28;20119;-69
2022/04/25 01:13:29;;;;;;;16.88;6.43;;;7.70;99.90;;;;;;5073441;28;20450;-69
2022/04/25 01:15:56;;;;;;;12.60;6.55;;;7.70;99.90;;;;;;5073112;28;20055;-70
2022/04/25 01:18:23;;;;;;;15.95;6.60;;;7.70;99.90;;;;;;5072435;28;20048;-69
2022/04/25 01:20:52;;;;;;;18.02;7.13;;;7.60;99.90;;;;;;5073005;28;20048;-70
2022/04/25 01:28:52;;;;;;;12.68;6.68;;;7.60;99.90;;;;;;5072409;28;20052;-70
2022/04/25 01:31:19;;;;;;;10.80;6.57;;;7.60;99.90;;;;;;5071580;28;20147;-70
2022/04/25 01:33:46;;;;;;;12.85;6.32;;;7.50;99.90;;;;;;5072218;28;20044;-69
2022/04/25 01:36:15;;;;;;;14.90;7.38;;;7.50;99.90;;;;;;5073353;28;20049;-70
2022/04/25 01:38:44;;;;;;;12.90;6.25;;;7.40;99.90;;;;;;5081915;28;20080;-70
2022/04/25 01:41:11;;;;;;;8.73;6.50;;;7.40;99.90;;;;;;5073402;28;20531;-70
2022/04/25 01:43:37;;;;;;;16.42;6.97;;;7.40;99.90;;;;;;5072323;28;20480;-70
2022/04/25 01:46:05;;;;;;;12.65;6.68;;;7.40;99.90;;;;;;5071411;28;20053;-70
2022/04/25 01:48:32;;;;;;;12.38;6.88;;;7.30;99.90;;;;;;5073291;28;20052;-69
2022/04/25 01:50:58;;;;;;;12.63;5.63;;;7.30;99.90;;;;;;5072477;28;20075;-70
2022/04/25 01:53:25;;;;;;;12.45;6.82;;;7.30;99.90;;;;;;5069921;28;20483;-70
2022/04/25 01:55:52;;;;;;;14.30;7.78;;;7.30;99.90;;;;;;5071356;28;20404;-69
2022/04/25 01:58:19;;;;;;;12.48;7.80;;;7.30;99.90;;;;;;5072679;28;20051;-69
2022/04/25 02:00:46;;;;;;;14.65;7.07;;;7.20;99.90;;;;;;5072638;28;20059;-69
2022/04/25 02:03:13;;;;;;;10.27;6.53;;;7.20;99.90;;;;;;5071215;28;20045;-70
2022/04/25 02:05:40;;;;;;;14.70;8.00;;;7.20;99.90;;;;;;5071711;28;20049;-69
2022/04/25 02:08:07;;;;;;;16.35;7.22;;;7.20;99.90;;;;;;5071284;28;20045;-69
2022/04/25 02:10:34;;;;;;;15.90;7.60;;;7.20;99.90;;;;;;5071501;28;20071;-69
2022/04/25 02:13:01;;;;;;;14.50;7.45;;;7.20;99.90;;;;;;5072880;28;20079;-69
2022/04/25 02:15:28;;;;;;;15.35;6.15;;;7.20;99.90;;;;;;5061099;28;20492;-70
2022/04/25 02:17:55;;;;;;;12.32;6.57;;;7.20;99.90;;;;;;5070302;28;20041;-69
2022/04/25 02:20:21;;;;;;;11.23;6.80;;;7.20;99.90;;;;;;5059958;28;20052;-69
2022/04/25 02:22:48;;;;;;;19.95;7.43;;;7.20;99.90;;;;;;5069178;28;20506;-69
2022/04/25 02:25:16;;;;;;;12.70;6.20;;;7.10;99.90;;;;;;5071799;28;20484;-69
2022/04/25 02:27:43;;;;;;;16.27;6.30;;;7.10;99.90;;;;;;5071472;28;20052;-69
2022/04/25 02:30:10;;;;;;;16.00;7.68;;;7.10;99.90;;;;;;5066792;28;20045;-70
2022/04/25 02:32:37;;;;;;;15.77;8.52;;;7.10;99.90;;;;;;5057945;28;20052;-70
2022/04/25 02:35:04;;;;;;;18.58;7.47;;;7.10;99.90;;;;;;5077324;28;20540;-69
2022/04/25 02:37:33;;;;;;;12.77;7.53;;;7.10;99.90;;;;;;5066479;28;20055;-70
2022/04/25 02:40:00;;;;;;;11.85;7.55;;;7.10;99.90;;;;;;5078860;28;20044;-70
2022/04/25 02:42:27;;;;;;;18.38;8.75;;;7.20;99.90;;;;;;5083029;28;20049;-70
2022/04/25 02:44:54;;;;;;;19.05;7.22;;;7.20;99.90;;;;;;5072428;28;20041;-70
2022/04/25 02:47:20;;;;;;;19.85;7.63;;;7.20;99.90;;;;;;5070436;28;20048;-70
2022/04/25 02:49:47;;;;;;;11.27;6.72;;;7.30;99.90;;;;;;5071907;28;20053;-71
2022/04/25 02:52:14;;;;;;;14.90;7.57;;;7.30;99.90;;;;;;5070557;28;20055;-70
2022/04/25 02:54:42;;;;;;;14.55;7.75;;;7.30;99.90;;;;;;5069935;28;20056;-69
2022/04/25 02:57:10;;;;;;;15.15;7.63;;;7.30;99.90;;;;;;5061339;28;20087;-69
2022/04/25 02:59:37;;;;;;;18.95;7.53;;;7.40;99.90;;;;;;5083641;28;20040;-69
2022/04/25 03:02:04;;;;;;;14.13;7.63;;;7.40;99.90;;;;;;5071071;28;20044;-69
2022/04/25 03:04:31;;;;;;;12.35;6.90;;;7.40;99.90;;;;;;5052416;28;20041;-70
2022/04/25 03:06:59;;;;;;;12.63;7.50;;;7.50;99.90;;;;;;5059921;28;20408;-69
2022/04/25 03:09:27;;;;;;;14.60;8.50;;;7.50;99.90;;;;;;5052434;28;20053;-69
2022/04/25 03:11:54;;;;;;;16.33;8.02;;;7.60;99.90;;;;;;5061979;28;20056;-69
2022/04/25 03:14:22;;;;;;;18.17;7.13;;;7.60;99.90;;;;;;5055690;28;20055;-70
2022/04/25 03:16:49;;;;;;;15.80;7.18;;;7.60;99.90;;;;;;5070548;28;20049;-70
2022/04/25 03:19:17;;;;;;;12.60;6.65;;;7.70;99.90;;;;;;5066815;28;20051;-70
2022/04/25 03:21:44;;;;;;;12.93;7.35;;;7.70;99.90;;;;;;5079341;28;20049;-70
2022/04/25 03:24:11;;;;;;;16.05;7.53;;;7.70;99.90;;;;;;5063443;28;20051;-70
2022/04/25 03:26:39;;;;;;;10.02;6.80;;;7.70;99.90;;;;;;5063855;28;20377;-70
2022/04/25 03:29:06;;;;;;;15.90;7.40;;;7.70;99.90;;;;;;5065967;28;20045;-69
2022/04/25 03:31:33;;;;;;;16.70;8.10;;;7.60;99.90;;;;;;5078746;28;20117;-69
2022/04/25 03:34:00;;;;;;;13.55;6.75;;;7.60;99.90;;;;;;5071372;28;20057;-71
2022/04/25 03:36:27;;;;;;;15.05;6.80;;;7.60;99.90;;;;;;5064557;28;20073;-70
2022/04/25 03:38:54;;;;;;;13.25;7.90;;;7.60;99.90;;;;;;5059907;28;20070;-70
2022/04/25 03:41:21;;;;;;;11.60;7.45;;;7.50;99.90;;;;;;5066376;28;20056;-72
2022/04/25 03:43:48;;;;;;;17.65;8.35;;;7.50;99.90;;;;;;5062407;28;20037;-70
2022/04/25 03:46:15;;;;;;;18.05;8.48;;;7.50;99.90;;;;;;5051566;28;20052;-69
2022/04/25 03:48:44;;;;;;;20.85;8.30;;;7.50;99.90;;;;;;5067867;28;20044;-69
2022/04/25 03:51:10;;;;;;;14.83;7.50;;;7.50;99.90;;;;;;5069696;28;20052;-69
2022/04/25 03:53:38;;;;;;;15.70;8.05;;;7.50;99.90;;;;;;5070499;28;20044;-68
2022/04/25 03:58:50;;;;;;;18.20;7.50;;;7.40;99.90;;;;;;5068395;28;20051;-69
2022/04/25 04:01:17;;;;;;;22.52;7.55;;;7.40;99.90;;;;;;5067472;28;20052;-69
2022/04/25 04:03:45;;;;;;;20.73;7.97;;;7.40;99.90;;;;;;5062476;28;20037;-70
2022/04/25 04:06:13;;;;;;;16.35;8.00;;;7.40;99.90;;;;;;5059601;28;20037;-68
2022/04/25 04:08:40;;;;;;;11.95;7.97;;;7.40;99.90;;;;;;5065260;28;20045;-68
2022/04/25 04:11:06;;;;;;;13.00;6.43;;;7.40;99.90;;;;;;5063026;28;20045;-71
2022/04/25 04:13:34;;;;;;;17.98;7.38;;;7.40;99.90;;;;;;5067410;28;20049;-68
2022/04/25 04:16:03;;;;;;;15.60;7.70;;;7.30;99.90;;;;;;5065909;28;20048;-69
2022/04/25 04:18:31;;;;;;;17.40;8.30;;;7.30;99.90;;;;;;5052282;28;20090;-69
2022/04/25 04:20:58;;;;;;;14.32;6.97;;;7.30;99.90;;;;;;5057752;28;20045;-68
2022/04/25 04:23:30;;;;;;;18.38;8.00;;;7.20;99.90;;;;;;5066858;28;20041;-69
2022/04/25 04:25:57;;;;;;;12.00;8.13;;;7.20;99.90;;;;;;5063007;28;20494;-69
2022/04/25 04:28:24;;;;;;;16.83;8.27;;;7.20;99.90;;;;;;5070097;28;20400;-69
2022/04/25 04:30:51;;;;;;;13.80;6.80;;;7.10;99.90;;;;;;5066926;28;20349;-69
2022/04/25 04:33:19;;;;;;;15.35;7.53;;;7.00;99.90;;;;;;5069902;28;20115;-69
2022/04/25 04:38:31;;;;;;;15.00;7.95;;;6.90;99.90;;;;;;5052746;28;20056;-68
2022/04/25 04:40:59;;;;;;;13.75;7.55;;;7.00;99.90;;;;;;5053981;28;20060;-69
2022/04/25 04:43:26;;;;;;;13.52;6.95;;;6.90;99.90;;;;;;5082745;28;20057;-70
2022/04/25 04:45:53;;;;;;;18.40;9.02;;;7.00;99.90;;;;;;5062894;28;20056;-69
2022/04/25 04:48:20;;;;;;;16.75;7.82;;;7.00;99.90;;;;;;5061550;28;20044;-69
2022/04/25 04:50:47;;;;;;;22.08;10.30;;;7.10;99.90;;;;;;5070098;28;20146;-69
2022/04/25 04:53:14;;;;;;;17.05;7.68;;;7.20;99.90;;;;;;5072767;28;20048;-70
2022/04/25 04:55:41;;;;;;;16.25;7.55;;;7.20;99.90;;;;;;5068340;28;20053;-69
2022/04/25 04:58:08;;;;;;;16.10;7.80;;;7.20;99.90;;;;;;5073038;28;20041;-69
2022/04/25 05:00:35;;;;;;;13.63;7.25;;;7.30;99.90;;;;;;5072860;28;20052;-69
2022/04/25 05:03:01;;;;;;;16.90;9.00;;;7.30;99.90;;;;;;5071896;28;20514;-70
2022/04/25 05:05:29;;;;;;;15.60;8.10;;;7.30;99.90;;;;;;5071860;28;20040;-69
2022/04/25 05:07:55;;;;;;;20.55;8.68;;;7.30;99.90;;;;;;5074971;28;20052;-70
2022/04/25 05:10:22;;;;;;;12.18;7.78;;;7.20;99.90;;;;;;5074303;28;20087;-69
2022/04/25 05:12:51;;;;;;;17.33;8.20;;;7.20;99.90;;;;;;5073312;28;20063;-69
2022/04/25 05:15:18;;;;;;;15.52;9.02;;;7.30;99.90;;;;;;5088475;28;20480;-69
2022/04/25 05:17:48;;;;;;;12.13;7.60;;;7.20;99.90;;;;;;5073210;28;20049;-68
2022/04/25 05:20:16;;;;;;;15.57;8.40;;;7.20;99.90;;;;;;5073323;28;20071;-69
2022/04/25 05:22:44;;;;;;;19.15;8.98;;;7.30;99.90;;;;;;5072231;28;20111;-68
2022/04/25 05:25:16;;;;;;;13.17;7.60;;;7.30;99.90;;;;;;5073699;28;20106;-69
2022/04/25 05:27:43;;;;;;;19.23;8.55;;;7.40;99.90;;;;;;5071267;28;20048;-69
2022/04/25 05:30:11;;;;;;;19.17;8.50;;;7.40;99.90;;;;;;5071604;28;20048;-69
2022/04/25 05:32:51;;;;;;;13.32;7.80;;;7.50;99.90;;;;;;5054232;28;20072;-69
2022/04/25 05:35:21;;;;;;;17.05;8.65;;;7.40;99.90;;;;;;5071705;28;20053;-68
2022/04/25 05:37:47;;;;;;;12.75;8.10;;;7.40;99.90;;;;;;5072797;28;20368;-69
2022/04/25 05:40:16;;;;;;;13.68;7.82;;;7.40;99.90;;;;;;5071797;28;20472;-70
2022/04/25 05:42:44;;;;;;;14.57;7.60;;;7.40;99.90;;;;;;5073217;28;20060;-69
2022/04/25 05:45:12;;;;;;;19.92;10.75;;;7.50;99.90;;;;;;5074225;28;20040;-69
2022/04/25 05:47:39;;;;;;;17.55;7.85;;;7.50;99.90;;;;;;5076934;28;20059;-69
2022/04/25 05:52:52;;;;;;;10.52;7.18;;;7.50;99.90;;;;;;5071985;28;20487;-68
2022/04/25 05:55:19;;;;;;;15.63;7.28;;;7.70;99.90;;;;;;5087816;28;20036;-69
2022/04/25 05:57:46;;;;;;;23.15;8.80;;;7.70;99.90;;;;;;5070881;28;20049;-69
2022/04/25 06:00:14;;;;;;;21.48;9.73;;;7.70;99.90;;;;;;5071281;28;20132;-69
2022/04/25 06:02:42;;;;;;;19.17;8.52;;;7.70;99.90;;;;;;5071657;28;20051;-69
2022/04/25 06:05:12;;;;;;;20.77;8.15;;;7.60;99.90;;;;;;5055271;28;20055;-69
2022/04/25 06:07:41;;;;;;;14.52;7.82;;;7.70;99.90;;;;;;5072270;28;20488;-69
2022/04/25 06:10:08;;;;;;;16.85;8.35;;;7.60;99.90;;;;;;5071382;28;20052;-69
2022/04/25 06:12:42;;;;;;;17.30;8.07;;;7.70;99.90;;;;;;5071272;28;20119;-68
2022/04/25 06:15:09;;;;;;;13.68;7.60;;;7.80;99.90;;;;;;5071684;28;20123;-69
2022/04/25 06:17:37;;;;;;;18.77;7.72;;;7.80;99.90;;;;;;5070889;28;20051;-69
2022/04/25 06:20:06;;;;;;;16.63;7.43;;;7.90;99.90;;;;;;5071536;28;20044;-69
2022/04/25 06:22:33;;;;;;;14.55;7.50;;;7.90;99.90;;;;;;5054834;28;20045;-69
2022/04/25 06:25:00;;;;;;;16.55;8.10;;;8.00;99.90;;;;;;5071154;28;20049;-69
2022/04/25 06:27:27;;;;;;;14.63;8.05;;;8.00;99.90;;;;;;5072899;28;20041;-69
2022/04/25 06:29:54;;;;;;;12.95;7.05;;;8.00;99.90;;;;;;5071584;28;20177;-69
2022/04/25 06:32:21;;;;;;;13.32;7.03;;;8.10;99.90;;;;;;5072536;28;20036;-69
2022/04/25 06:34:48;;;;;;;18.63;7.68;;;8.10;99.90;;;;;;5074780;28;20048;-69
2022/04/25 06:37:15;;;;;;;18.55;7.10;;;8.00;99.90;;;;;;5070595;28;20388;-68
2022/04/25 06:39:42;;;;;;;13.32;7.70;;;8.00;99.90;;;;;;5070471;28;20056;-68
2022/04/25 06:42:09;;;;;;;18.15;8.10;;;8.00;99.90;;;;;;5069937;28;20399;-69
2022/04/25 06:44:37;;;;;;;12.50;7.65;;;8.10;99.90;;;;;;5070608;28;20044;-68
2022/04/25 06:47:05;;;;;;;95.22;66.25;;;8.20;99.90;;;;;;5070051;28;20040;-66
2022/04/25 06:49:32;;;;;;;15.80;10.55;;;8.30;99.90;;;;;;5070079;28;20059;-66
2022/04/25 06:52:00;;;;;;;11.18;7.95;;;8.30;99.90;;;;;;5069977;28;20045;-65
2022/04/25 06:54:28;;;;;;;14.45;7.55;;;8.40;99.90;;;;;;5070831;28;20049;-66
2022/04/25 06:56:55;;;;;;;27.98;18.13;;;8.50;99.90;;;;;;5071554;28;20048;-66
2022/04/25 06:59:22;;;;;;;16.40;8.32;;;8.60;99.90;;;;;;5071023;28;20053;-68
2022/04/25 07:01:50;;;;;;;16.50;7.72;;;8.60;99.90;;;;;;5065727;28;20078;-69
2022/04/25 07:04:17;;;;;;;19.00;7.57;;;8.60;99.90;;;;;;5086513;28;20503;-65
2022/04/25 07:06:44;;;;;;;14.23;7.53;;;8.70;99.90;;;;;;5067183;28;20049;-65
2022/04/25 07:09:16;;;;;;;13.80;6.85;;;8.70;99.90;;;;;;5070139;28;20053;-65
2022/04/25 07:11:44;;;;;;;13.90;6.80;;;8.80;99.90;;;;;;5068518;28;20041;-65
2022/04/25 07:14:18;;;;;;;18.83;7.32;;;8.80;99.90;;;;;;5068108;28;20066;-65
2022/04/25 07:16:45;;;;;;;15.82;6.85;;;8.80;99.90;;;;;;5067825;28;20052;-65
2022/04/25 07:19:19;;;;;;;14.38;6.65;;;8.90;99.90;;;;;;5055052;28;20084;-65
2022/04/25 07:30:05;;;;;;;17.67;5.72;;;8.90;99.90;;;;;;5065494;28;20048;-66
2022/04/25 07:32:39;;;;;;;9.30;6.20;;;8.90;99.90;;;;;;5071074;28;20052;-67
2022/04/25 07:35:07;;;;;;;23.67;9.88;;;8.90;99.90;;;;;;5069338;28;20147;-66
2022/04/25 07:37:34;;;;;;;15.43;6.97;;;8.90;99.90;;;;;;5067001;28;20052;-67
2022/04/25 07:40:02;;;;;;;15.13;5.72;;;9.00;99.90;;;;;;5071009;28;20048;-66
2022/04/25 07:42:31;;;;;;;19.60;7.47;;;9.00;99.90;;;;;;5069316;28;20044;-66
2022/04/25 07:44:58;;;;;;;19.73;5.10;;;9.10;99.90;;;;;;5071849;28;20048;-67
2022/04/25 07:47:25;;;;;;;11.88;4.75;;;9.10;99.90;;;;;;5077278;28;20290;-67
2022/04/25 07:49:52;;;;;;;9.25;4.72;;;9.10;99.90;;;;;;5061323;28;20487;-66
2022/04/25 07:52:19;;;;;;;17.85;5.97;;;9.10;99.90;;;;;;5076213;28;20036;-64
2022/04/25 07:54:46;;;;;;;13.05;5.22;;;9.10;99.90;;;;;;5067307;28;20055;-65
2022/04/25 07:57:12;;;;;;;13.40;5.65;;;9.20;99.90;;;;;;5066975;28;20056;-65
2022/04/25 07:59:39;;;;;;;13.40;5.75;;;9.30;99.90;;;;;;5070118;28;20073;-65
2022/04/25 08:02:06;;;;;;;9.23;4.82;;;9.40;99.90;;;;;;5070305;28;20087;-65
2022/04/25 08:04:34;;;;;;;13.32;5.88;;;9.40;99.90;;;;;;5070322;28;20052;-73
2022/04/25 08:07:01;;;;;;;38.70;24.65;;;9.40;99.90;;;;;;5086691;28;20055;-73
2022/04/25 08:09:28;;;;;;;49.72;29.38;;;9.40;99.90;;;;;;5053633;28;20056;-74
2022/04/25 08:20:11;;;;;;;9.48;5.10;;;9.50;99.90;;;;;;5074632;28;20048;-72
2022/04/25 08:22:39;;;;;;;7.25;4.70;;;9.60;99.90;;;;;;5089138;28;20411;-71
2022/04/25 08:25:07;;;;;;;20.88;5.65;;;9.70;99.90;;;;;;5072676;28;20055;-71
2022/04/25 08:27:40;;;;;;;19.30;6.45;;;9.70;99.90;;;;;;5073719;28;20102;-72
2022/04/25 08:30:07;;;;;;;13.32;5.65;;;9.80;99.90;;;;;;5075832;28;20051;-71
2022/04/25 08:32:35;;;;;;;13.05;5.03;;;9.80;99.90;;;;;;5072743;28;20106;-73
2022/04/25 08:35:02;;;;;;;23.75;6.57;;;9.80;99.90;;;;;;5074979;28;20044;-73
2022/04/25 08:37:29;;;;;;;11.45;6.30;;;9.80;99.90;;;;;;5074651;28;20174;-72
2022/04/25 08:40:03;;;;;;;12.98;6.13;;;9.80;99.90;;;;;;5073454;28;20044;-70
2022/04/25 08:42:31;;;;;;;11.70;5.40;;;9.70;99.90;;;;;;5073426;28;20120;-67
2022/04/25 08:45:11;;;;;;;11.18;5.15;;;9.80;99.90;;;;;;5064727;28;20079;-74
2022/04/25 08:47:44;;;;;;;11.43;6.30;;;9.80;99.90;;;;;;5072385;28;20494;-71
2022/04/25 08:50:11;;;;;;;14.60;6.35;;;9.90;99.90;;;;;;5072548;28;20050;-71
2022/04/25 08:52:40;;;;;;;9.43;5.68;;;9.90;99.90;;;;;;5055287;28;20052;-72
2022/04/25 08:55:07;;;;;;;8.25;5.72;;;9.90;99.90;;;;;;5073810;28;20040;-71
2022/04/25 08:57:35;;;;;;;12.73;5.35;;;10.00;99.90;;;;;;5074273;28;20044;-71
2022/04/25 09:00:05;;;;;;;11.13;5.70;;;10.10;99.90;;;;;;5073443;28;20040;-72
2022/04/25 09:02:33;;;;;;;;;;;10.20;99.90;;;;;;5072575;28;20053;-72
2022/04/25 09:05:01;;;;;;;12.98;6.50;;;10.30;99.90;;;;;;5089617;28;20324;-72
2022/04/25 09:07:28;;;;;;;11.20;5.75;;;10.30;99.90;;;;;;5073422;28;20045;-71
2022/04/25 09:09:55;;;;;;;11.57;6.57;;;10.40;99.90;;;;;;5072998;28;20083;-72
2022/04/25 09:12:22;;;;;;;14.15;5.47;;;10.50;99.90;;;;;;5073846;28;20048;-72
2022/04/25 09:14:49;;;;;;;13.48;6.07;;;10.50;99.90;;;;;;5072556;28;20059;-72
2022/04/25 09:17:39;;;;;;;11.38;6.10;;;10.70;99.90;;;;;;5072751;28;20048;-72
2022/04/25 09:20:07;;;;;;;92.82;65.18;;;10.90;99.90;;;;;;5071504;28;20047;-70
2022/04/25 09:22:36;;;;;;;16.95;7.30;;;11.00;99.90;;;;;;5056445;28;20056;-72
2022/04/25 09:25:24;;;;;;;15.07;5.90;;;11.20;99.90;;;;;;5088369;28;20799;-71
2022/04/25 09:28:13;;;;;;;15.98;5.78;;;11.40;99.90;;;;;;5069910;28;20052;-71
2022/04/25 09:30:57;;;;;;;10.65;4.82;;;11.20;99.90;;;;;;5072248;28;20040;-71
2022/04/25 09:33:25;;;;;;;12.13;5.57;;;11.30;99.90;;;;;;5071886;28;20098;-72
2022/04/25 09:35:53;;;;;;;12.05;6.22;;;11.40;99.90;;;;;;5073534;28;20070;-72
2022/04/25 09:38:34;;;;;;;10.95;5.88;;;11.40;99.90;;;;;;5088253;28;20462;-71
2022/04/25 09:41:01;;;;;;;11.80;5.43;;;11.30;99.90;;;;;;5070087;28;20072;-73
2022/04/25 09:43:30;;;;;;;11.85;5.53;;;11.40;99.90;;;;;;5072111;28;20047;-73
2022/04/25 09:46:02;;;;;;;9.27;5.05;;;11.50;99.90;;;;;;5067776;28;20049;-74
2022/04/25 09:48:29;;;;;;;9.57;6.18;;;11.40;99.90;;;;;;5068036;28;20056;-73
2022/04/25 09:51:05;;;;;;;12.25;6.38;;;11.50;99.90;;;;;;5070126;28;20048;-74
2022/04/25 09:53:52;;;;;;;9.75;5.35;;;11.60;99.90;;;;;;5071076;28;20059;-73
2022/04/25 09:56:20;;;;;;;10.80;6.75;;;11.70;99.90;;;;;;5056548;28;20047;-74
2022/04/25 09:59:01;;;;;;;12.10;6.35;;;11.60;99.90;;;;;;5067371;28;20491;-75
2022/04/25 10:01:29;;;;;;;9.90;5.15;;;11.70;99.90;;;;;;5073474;28;20045;-74
2022/04/25 10:03:56;;;;;;;9.75;5.57;;;12.00;99.90;;;;;;5066248;28;20463;-75
2022/04/25 10:06:23;;;;;;;9.02;5.40;;;12.10;99.90;;;;;;5070201;28;20933;-75
2022/04/25 10:08:54;;;;;;;10.68;5.53;;;12.10;99.90;;;;;;5087362;28;20060;-74
2022/04/25 10:11:21;;;;;;;11.07;6.07;;;12.00;99.90;;;;;;5086916;28;20086;-75
2022/04/25 10:13:48;;;;;;;11.13;5.43;;;12.10;99.90;;;;;;5070715;28;20044;-74
2022/04/25 10:16:20;;;;;;;9.85;5.45;;;12.00;99.90;;;;;;5086779;28;20051;-74
2022/04/25 10:18:47;;;;;;;8.23;5.55;;;11.90;99.90;;;;;;5070140;28;20036;-75
2022/04/25 10:21:14;;;;;;;10.82;6.05;;;12.00;99.90;;;;;;5071127;28;20044;-75
2022/04/25 10:23:41;;;;;;;10.52;5.72;;;12.10;99.90;;;;;;5071898;28;20120;-74
2022/04/25 10:26:08;;;;;;;12.40;6.13;;;12.20;99.90;;;;;;5087829;28;20377;-74
2022/04/25 10:28:48;;;;;;;12.88;4.93;;;12.40;99.90;;;;;;5086652;28;20411;-74
2022/04/25 10:31:31;;;;;;;;;;;12.60;99.90;;;;;;5073623;28;20048;-75
2022/04/25 10:33:59;;;;;;;10.48;6.45;;;12.70;99.90;;;;;;5069813;28;20292;-75
2022/04/25 10:36:38;;;;;;;12.90;6.25;;;12.70;99.90;;;;;;5070484;28;20052;-74
2022/04/25 10:39:27;;;;;;;10.27;5.05;;;12.90;99.90;;;;;;5069691;28;20498;-74
2022/04/25 10:44:42;;;;;;;9.43;5.45;;;13.10;99.90;;;;;;5071208;28;20044;-74
2022/04/25 10:47:22;;;;;;;8.60;5.22;;;13.00;99.90;;;;;;5071036;28;20046;-71
2022/04/25 10:49:58;;;;;;;;;;;13.00;99.90;;;;;;5069520;28;20119;-74
2022/04/25 10:52:34;;;;;;;10.45;5.93;;;13.00;99.90;;;;;;5070990;28;19924;-74
2022/04/25 10:55:20;;;;;;;10.13;5.72;;;13.10;99.90;;;;;;5069991;28;20044;-73
2022/04/25 10:58:02;;;;;;;8.48;5.38;;;13.20;99.90;;;;;;5067012;28;20048;-74
2022/04/25 11:00:42;;;;;;;9.77;5.90;;;13.00;99.30;;;;;;5071009;28;20072;-73
2022/04/25 11:03:26;;;;;;;9.98;5.22;;;13.00;99.90;;;;;;5070298;28;20499;-74
2022/04/25 11:06:04;;;;;;;12.05;5.90;;;13.00;99.90;;;;;;5072305;28;20048;-74
2022/04/25 11:08:32;;;;;;;14.15;6.22;;;13.20;99.90;;;;;;5070254;28;20056;-73
2022/04/25 11:11:18;;;;;;;8.88;5.63;;;13.20;99.90;;;;;;5063328;28;20377;-74
2022/04/25 11:13:51;;;;;;;10.63;5.28;;;13.10;99.60;;;;;;5069092;28;20048;-74
2022/04/25 11:16:23;;;;;;;11.40;5.75;;;13.20;98.90;;;;;;5069957;28;20079;-74
2022/04/25 11:19:15;;;;;;;6.90;5.05;;;13.30;99.90;;;;;;5048723;28;20037;-74
2022/04/25 11:21:46;;;;;;;9.30;4.82;;;13.50;97.90;;;;;;5057847;28;20049;-74
2022/04/25 11:24:29;;;;;;;8.35;5.72;;;13.60;97.00;;;;;;5071579;28;20044;-73
2022/04/25 11:26:58;;;;;;;16.27;5.90;;;13.70;95.40;;;;;;5066906;28;20048;-74
2022/04/25 11:29:25;;;;;;;7.32;4.80;;;13.70;95.80;;;;;;5070362;28;20048;-73
2022/04/25 11:31:52;;;;;;;10.95;5.90;;;13.50;96.20;;;;;;5062441;28;20043;-74
2022/04/25 11:34:21;;;;;;;10.02;5.72;;;13.40;96.10;;;;;;5069707;28;20128;-73
2022/04/25 11:36:48;;;;;;;9.40;5.63;;;13.40;97.60;;;;;;5069671;28;20053;-73
2022/04/25 11:42:06;;;;;;;11.68;5.28;;;13.70;98.60;;;;;;5068142;28;20044;-74
2022/04/25 11:44:38;;;;;;;13.70;7.03;;;13.80;96.30;;;;;;5076756;28;20055;-73
2022/04/25 11:47:07;;;;;;;9.23;5.20;;;13.80;96.30;;;;;;5070265;28;20136;-73
2022/04/25 11:49:37;;;;;;;9.88;5.03;;;13.80;94.30;;;;;;5072011;28;20076;-72
2022/04/25 11:52:05;;;;;;;8.05;4.65;;;13.60;93.90;;;;;;5071732;28;20128;-72
2022/04/25 11:54:32;;;;;;;7.72;5.13;;;13.40;95.00;;;;;;5055537;28;20052;-73
2022/04/25 11:57:02;;;;;;;7.68;4.88;;;13.30;95.70;;;;;;5073513;28;20052;-71
2022/04/25 11:59:47;;;;;;;10.32;4.93;;;13.30;96.10;;;;;;5068527;28;20056;-73
2022/04/25 12:02:14;;;;;;;8.93;5.22;;;13.10;99.20;;;;;;5073774;28;20052;-73
2022/04/25 12:04:42;;;;;;;12.63;6.05;;;13.00;98.40;;;;;;5082690;28;20044;-72
2022/04/25 12:07:10;;;;;;;7.13;5.90;;;12.90;99.90;;;;;;5074634;28;20048;-68
2022/04/25 12:18:22;;;;;;;12.15;5.60;;;12.90;99.90;;;;;;5087910;28;20474;-70
2022/04/25 12:21:00;;;;;;;10.30;5.25;;;13.10;99.40;;;;;;5088877;28;20048;-70
2022/04/25 12:23:34;;;;;;;10.75;5.10;;;13.20;99.10;;;;;;5088486;28;20506;-70
2022/04/25 12:26:03;;;;;;;10.65;5.28;;;13.40;98.30;;;;;;5071662;28;20093;-70
2022/04/25 12:28:31;;;;;;;11.82;5.80;;;13.80;98.40;;;;;;5074778;28;20051;-71
2022/04/25 12:31:00;;;;;;;11.23;6.82;;;14.20;96.40;;;;;;5073332;28;20506;-59
2022/04/25 12:33:41;;;;;;;30.30;26.23;;;14.70;94.70;;;;;;5072904;28;20486;-69
2022/04/25 12:36:20;;;;;;;7.88;4.75;;;14.90;81.00;;;;;;5072824;28;20040;-66
2022/04/25 12:38:49;;;;;;;7.70;4.97;;;15.10;77.70;;;;;;5074466;28;20691;-68
2022/04/25 12:41:23;;;;;;;8.07;5.03;;;15.00;76.40;;;;;;5076848;28;20044;-69
2022/04/25 12:43:51;;;;;;;5.22;3.95;;;15.00;75.80;;;;;;5056985;28;20080;-72
2022/04/25 12:46:38;;;;;;;7.72;4.00;;;14.80;74.30;;;;;;5072827;28;20053;-69
2022/04/25 12:49:14;;;;;;;6.22;4.20;;;15.00;75.60;;;;;;5073106;28;20549;-70
2022/04/25 12:51:51;;;;;;;6.43;4.13;;;15.10;71.40;;;;;;5072127;28;20471;-70
2022/04/25 12:54:30;;;;;;;7.93;4.32;;;15.10;71.40;;;;;;5068957;28;20044;-70
2022/04/25 12:57:21;;;;;;;7.40;4.13;;;15.10;72.10;;;;;;5073333;28;20045;-69
2022/04/25 12:59:54;;;;;;;9.10;4.85;;;15.10;72.20;;;;;;5072955;28;20418;-70
2022/04/25 13:02:41;;;;;;;6.15;4.28;;;15.00;70.30;;;;;;5073279;28;20044;-70
2022/04/25 13:05:09;;;;;;;5.63;4.18;;;15.00;71.00;;;;;;5073787;28;20070;-71
2022/04/25 13:07:42;;;;;;;7.03;4.07;;;15.10;71.40;;;;;;5073244;28;20063;-70
2022/04/25 13:10:11;;;;;;;8.75;4.60;;;15.20;73.50;;;;;;5088944;28;20051;-70
2022/04/25 13:12:42;;;;;;;10.27;4.80;;;15.10;70.20;;;;;;5072691;28;20040;-70
2022/04/25 13:15:10;;;;;;;7.32;4.32;;;14.90;73.30;;;;;;5070896;28;20067;-70
2022/04/25 13:17:37;;;;;;;13.55;5.70;;;14.40;80.60;;;;;;5088288;28;20049;-69
2022/04/25 13:20:09;;;;;;;10.70;5.97;;;13.90;90.50;;;;;;5052766;28;20044;-70
2022/04/25 13:22:36;;;;;;;12.75;6.20;;;13.40;96.30;;;;;;5088495;28;20141;-69
2022/04/25 13:25:05;;;;;;;13.73;6.95;;;13.00;99.90;;;;;;5072503;28;20044;-70
2022/04/25 13:27:32;;;;;;;22.52;8.38;;;12.50;99.90;;;;;;5071792;28;20044;-70
2022/04/25 13:30:02;;;;;;;13.52;6.13;;;12.10;99.90;;;;;;5055893;28;20048;-71
2022/04/25 13:32:29;;;;;;;17.70;7.53;;;11.70;99.90;;;;;;5056936;28;20055;-70
2022/04/25 13:34:56;;;;;;;10.68;7.10;;;11.70;99.90;;;;;;5071586;28;20106;-70
2022/04/25 13:37:23;;;;;;;9.98;6.75;;;11.80;99.90;;;;;;5071611;28;20059;-70
2022/04/25 13:39:50;;;;;;;12.98;6.93;;;11.90;99.90;;;;;;5073740;28;20163;-69
2022/04/25 13:42:18;;;;;;;7.32;6.07;;;12.10;99.90;;;;;;5088110;28;20049;-70